Time;durP1;ratioP1;P1;durP2;ratioP2;P2;SDS_P1;SDS_P2;PMS_P1;PMS_P2;Temp;Humidity;BMP_temperature;BMP_pressure;BME280_temperature;BME280_humidity;BME280_pressure;Samples;Min_cycle;Max_cycle;Signal;HPM_P1;HPM_P2
2022/03/11 00:02:03;;;;;;;31.50;7.63;;;;;;;-9.94;54.18;100361.75;4806666;29;20055;-81
2022/03/11 00:04:29;;;;;;;29.30;6.35;;;;;;;-9.93;54.22;100366.09;4806628;29;20050;-80
2022/03/11 00:06:55;;;;;;;34.33;8.27;;;;;;;-9.97;54.16;100366.88;4806419;29;20496;-81
2022/03/11 00:09:22;;;;;;;7.00;4.97;;;;;;;-10.05;54.50;100367.59;4806530;29;20129;-80
2022/03/11 00:11:48;;;;;;;21.02;6.47;;;;;;;-9.99;54.45;100364.28;4776710;29;20232;-79
2022/03/11 00:14:14;;;;;;;15.75;7.68;;;;;;;-9.89;54.25;100354.94;4807560;29;20128;-81
2022/03/11 00:16:40;;;;;;;10.85;4.00;;;;;;;-9.99;54.07;100363.41;4776478;29;20107;-81
2022/03/11 00:19:06;;;;;;;15.02;6.88;;;;;;;-9.98;53.81;100355.66;4806320;29;20058;-80
2022/03/11 00:21:33;;;;;;;15.45;5.05;;;;;;;-9.90;53.98;100348.91;4807686;29;20145;-81
2022/03/11 00:23:59;;;;;;;21.88;4.78;;;;;;;-10.04;53.68;100351.25;4807523;29;20062;-80
2022/03/11 00:26:25;;;;;;;5.40;3.50;;;;;;;-10.04;53.99;100351.25;4806043;29;20051;-81
2022/03/11 00:28:51;;;;;;;10.55;5.43;;;;;;;-10.07;53.70;100350.31;4805988;29;20138;-81
2022/03/11 00:31:17;;;;;;;18.27;5.18;;;;;;;-10.06;53.96;100350.34;4806718;29;20061;-81
2022/03/11 00:33:43;;;;;;;15.32;5.38;;;;;;;-10.07;53.86;100353.78;4806460;29;20115;-81
2022/03/11 00:36:09;;;;;;;10.95;6.88;;;;;;;-10.08;53.81;100346.88;4806208;29;20062;-80
2022/03/11 00:38:35;;;;;;;10.57;5.20;;;;;;;-10.05;53.44;100354.66;4791130;29;20058;-81
2022/03/11 00:41:01;;;;;;;12.43;4.80;;;;;;;-9.99;53.76;100341.00;4807720;29;20084;-80
2022/03/11 00:43:28;;;;;;;9.48;4.47;;;;;;;-10.06;53.40;100352.94;4806125;29;20063;-81
2022/03/11 00:45:55;;;;;;;7.00;3.90;;;;;;;-10.17;53.77;100348.41;4790950;29;20062;-82
2022/03/11 00:48:23;;;;;;;11.52;4.90;;;;;;;-10.06;53.50;100352.94;4806035;29;20054;-82
2022/03/11 00:50:49;;;;;;;17.00;6.28;;;;;;;-10.02;53.61;100349.56;4806847;29;20070;-82
2022/03/11 00:53:15;;;;;;;10.98;4.70;;;;;;;-9.99;53.87;100358.22;4775898;29;20080;-81
2022/03/11 00:55:41;;;;;;;7.28;3.83;;;;;;;-10.12;53.55;100351.94;4805691;29;20058;-81
2022/03/11 00:58:07;;;;;;;8.65;4.20;;;;;;;-10.00;53.79;100347.00;4806703;29;20116;-81
2022/03/11 01:00:33;;;;;;;9.98;4.57;;;;;;;-10.05;53.99;100356.38;4791002;29;20051;-80
2022/03/11 01:02:59;;;;;;;6.28;3.75;;;;;;;-9.99;53.55;100350.47;4806652;29;20472;-80
2022/03/11 01:05:25;;;;;;;7.45;3.83;;;;;;;-10.07;53.71;100346.03;4806759;29;20141;-81
2022/03/11 01:07:52;;;;;;;10.00;4.15;;;;;;;-10.00;53.59;100353.88;4806260;29;20105;-80
2022/03/11 01:10:18;;;;;;;6.93;4.35;;;;;;;-10.02;53.65;100349.56;4805791;29;20070;-81
2022/03/11 01:12:45;;;;;;;9.40;4.97;;;;;;;-10.03;53.68;100342.66;4790107;29;20543;-80
2022/03/11 01:15:11;;;;;;;8.35;3.97;;;;;;;-10.10;53.66;100339.91;4805573;29;20084;-80
2022/03/11 01:17:37;;;;;;;6.10;4.00;;;;;;;-9.98;53.40;100350.47;4760804;29;20054;-81
2022/03/11 01:20:06;;;;;;;7.78;3.80;;;;;;;-10.07;53.60;100334.81;4805657;29;20149;-81
2022/03/11 01:22:33;;;;;;;5.82;3.75;;;;;;;-10.05;53.43;100335.69;4790622;29;20097;-83
2022/03/11 01:24:59;;;;;;;7.72;4.03;;;;;;;-10.02;53.90;100346.09;4805348;29;20074;-81
2022/03/11 01:27:25;;;;;;;8.98;3.88;;;;;;;-10.11;53.46;100341.63;4790156;29;20058;-81
2022/03/11 01:29:51;;;;;;;8.48;4.75;;;;;;;-10.03;53.63;100332.31;4790017;29;20462;-81
2022/03/11 01:32:17;;;;;;;7.78;4.38;;;;;;;-10.17;53.93;100332.88;4805059;29;20199;-83
2022/03/11 01:34:43;;;;;;;11.60;5.30;;;;;;;-10.12;53.88;100334.69;4804859;29;20074;-81
2022/03/11 01:37:09;;;;;;;10.80;5.72;;;;;;;-10.08;54.20;100323.59;4805258;29;20142;-81
2022/03/11 01:39:37;;;;;;;23.05;5.55;;;;;;;-10.06;54.00;100331.38;4805342;29;20047;-81
2022/03/11 01:42:03;;;;;;;7.60;4.70;;;;;;;-10.05;54.24;100328.81;4805806;29;20397;-80
2022/03/11 01:44:29;;;;;;;8.02;3.83;;;;;;;-10.09;54.09;100329.59;4779684;29;20050;-81
2022/03/11 01:46:56;;;;;;;7.20;4.30;;;;;;;-10.10;54.15;100330.44;4817413;29;20055;-81
2022/03/11 01:49:22;;;;;;;10.90;4.40;;;;;;;-10.09;54.05;100320.97;4783607;29;20059;-79
2022/03/11 01:51:48;;;;;;;9.57;4.00;;;;;;;-10.12;54.18;100321.78;4806796;29;20092;-82
2022/03/11 01:54:14;;;;;;;24.20;6.22;;;;;;;-10.20;54.22;100318.16;4805016;29;20477;-80
2022/03/11 01:56:41;;;;;;;26.00;6.15;;;;;;;-10.10;54.06;100319.22;4805646;29;20058;-81
2022/03/11 01:59:09;;;;;;;21.33;6.05;;;;;;;-10.18;54.30;100321.69;4804938;29;20419;-81
2022/03/11 02:01:34;;;;;;;17.48;4.50;;;;;;;-10.12;53.97;100321.78;4804645;29;20566;-81
2022/03/11 02:04:01;;;;;;;7.80;5.13;;;;;;;-10.13;54.38;100317.44;4804881;29;20058;-79
2022/03/11 02:06:28;;;;;;;13.85;4.72;;;;;;;-10.13;54.25;100317.44;4775035;29;20062;-80
2022/03/11 02:08:59;;;;;;;19.63;6.28;;;;;;;-10.15;54.10;100320.88;4804577;29;20059;-79
2022/03/11 02:11:25;;;;;;;28.05;11.93;;;;;;;-10.15;54.47;100318.28;4805209;29;20058;-82
2022/03/11 02:14:00;;;;;;;;;;;;;;;-10.10;54.32;100314.94;4781986;29;20127;-83
2022/03/11 02:16:32;;;;;;;9.70;4.10;;;;;;;-10.04;54.14;100320.22;4806183;29;19925;-84
2022/03/11 02:18:59;;;;;;;28.63;7.22;;;;;;;-10.05;53.87;100315.00;4789989;29;20055;-81
2022/03/11 02:21:27;;;;;;;12.85;5.20;;;;;;;-10.11;53.82;100310.59;4808836;29;20058;-86
2022/03/11 02:23:54;;;;;;;18.95;4.95;;;;;;;-10.13;53.87;100309.69;4810075;29;20071;-84
2022/03/11 02:26:22;;;;;;;10.40;5.93;;;;;;;-10.06;54.10;100306.38;4808365;29;20055;-81
2022/03/11 02:28:49;;;;;;;9.98;4.97;;;;;;;-10.06;54.27;100303.78;4810253;29;20066;-86
2022/03/11 02:31:16;;;;;;;7.72;5.03;;;;;;;-10.10;53.94;100309.75;4793337;29;20090;-81
2022/03/11 02:33:42;;;;;;;18.02;5.82;;;;;;;-10.14;53.91;100315.72;4793092;29;20050;-83
2022/03/11 02:36:09;;;;;;;11.88;5.50;;;;;;;-10.10;54.07;100317.50;4808105;29;20423;-80
2022/03/11 02:38:36;;;;;;;8.70;4.38;;;;;;;-9.99;53.90;100314.25;4793067;29;20058;-79
2022/03/11 02:41:02;;;;;;;8.48;5.70;;;;;;;-10.00;53.75;100315.09;4793153;29;20380;-80
2022/03/11 02:43:28;;;;;;;18.05;6.78;;;;;;;-10.02;53.60;100313.34;4808108;29;20435;-82
2022/03/11 02:45:54;;;;;;;30.83;6.40;;;;;;;-10.05;54.33;100309.84;4808375;29;20055;-82
2022/03/11 02:48:20;;;;;;;23.55;6.82;;;;;;;-9.99;54.18;100302.19;4792901;29;20054;-82
2022/03/11 02:50:47;;;;;;;15.90;6.05;;;;;;;-10.04;53.96;100299.53;4808331;29;20129;-80
2022/03/11 02:53:13;;;;;;;14.70;6.47;;;;;;;-9.89;53.79;100308.38;4808106;29;20055;-80
2022/03/11 02:55:39;;;;;;;12.13;5.82;;;;;;;-9.99;53.82;100306.50;4808560;29;20061;-80
2022/03/11 02:58:06;;;;;;;13.77;6.28;;;;;;;-10.02;53.73;100308.19;4807936;29;20104;-82
2022/03/11 03:00:32;;;;;;;14.10;5.65;;;;;;;-9.88;54.08;100304.97;4792781;29;20055;-84
2022/03/11 03:02:58;;;;;;;9.63;4.88;;;;;;;-9.77;53.65;100315.53;4810522;29;20067;-84
2022/03/11 03:05:24;;;;;;;16.80;5.30;;;;;;;-9.88;53.78;100315.31;4808869;29;20063;-83
2022/03/11 03:07:50;;;;;;;12.52;5.57;;;;;;;-9.93;53.95;100311.75;4808648;29;20086;-82
2022/03/11 03:10:16;;;;;;;9.48;5.03;;;;;;;-9.90;53.77;100311.81;4778192;29;20109;-87
2022/03/11 03:12:42;;;;;;;9.60;6.10;;;;;;;-9.83;53.80;100318.84;4807828;29;20070;-80
2022/03/11 03:15:09;;;;;;;7.68;4.53;;;;;;;-9.79;54.00;100310.31;4793112;29;20098;-84
2022/03/11 03:17:35;;;;;;;12.93;6.72;;;;;;;-9.79;54.11;100303.41;4809261;29;20535;-86
2022/03/11 03:20:03;;;;;;;12.20;7.03;;;;;;;-9.74;54.28;100308.69;4811241;29;20579;-78
2022/03/11 03:22:29;;;;;;;17.35;7.63;;;;;;;-9.61;54.31;100305.44;4809723;29;20059;-77
2022/03/11 03:24:55;;;;;;;15.40;5.53;;;;;;;-9.61;53.54;100299.41;4808752;29;20057;-85
2022/03/11 03:27:21;;;;;;;12.80;6.20;;;;;;;-9.63;53.68;100306.25;4808676;29;20492;-81
2022/03/11 03:29:47;;;;;;;9.80;5.03;;;;;;;-9.60;53.83;100316.66;4807158;29;20054;-82
2022/03/11 03:32:13;;;;;;;10.88;5.65;;;;;;;-9.68;53.76;100302.72;4808829;29;20111;-82
2022/03/11 03:34:41;;;;;;;16.20;5.20;;;;;;;-9.63;53.52;100307.13;4792251;29;20055;-79
2022/03/11 03:37:10;;;;;;;12.38;6.20;;;;;;;-9.45;53.85;100305.69;4792805;29;20053;-84
2022/03/11 03:39:38;;;;;;;23.17;4.93;;;;;;;-9.37;53.24;100306.69;4807593;29;20090;-80
2022/03/11 03:42:05;;;;;;;10.40;5.78;;;;;;;-9.32;52.77;100313.69;4807177;29;20051;-85
2022/03/11 03:44:31;;;;;;;12.27;5.70;;;;;;;-9.28;52.87;100313.75;4808445;29;20073;-79
2022/03/11 03:46:57;;;;;;;8.25;5.35;;;;;;;-9.17;52.41;100307.00;4805760;29;20058;-79
2022/03/11 03:49:23;;;;;;;9.18;5.53;;;;;;;-9.20;52.05;100313.00;4796618;29;20062;-80
2022/03/11 03:51:50;;;;;;;23.85;5.90;;;;;;;-9.23;52.27;100304.31;4806989;29;20059;-82
2022/03/11 03:54:17;;;;;;;16.50;6.20;;;;;;;-9.21;52.13;100300.91;4807230;29;20120;-77
2022/03/11 03:56:45;;;;;;;18.95;6.50;;;;;;;-9.24;51.92;100306.03;4793193;29;20059;-79
2022/03/11 03:59:13;;;;;;;17.05;7.80;;;;;;;-9.02;51.97;100303.78;4808433;29;20158;-81
2022/03/11 04:01:40;;;;;;;22.02;7.82;;;;;;;-8.83;51.76;100305.75;4807105;29;20587;-84
2022/03/11 04:04:08;;;;;;;19.35;8.13;;;;;;;-8.62;51.40;100307.75;4806075;29;20046;-76
2022/03/11 04:06:35;;;;;;;14.70;6.55;;;;;;;-8.58;50.73;100307.78;4808540;29;20078;-80
2022/03/11 04:09:03;;;;;;;13.48;6.05;;;;;;;-8.65;51.01;100312.88;4807169;29;20207;-79
2022/03/11 04:11:29;;;;;;;17.00;7.88;;;;;;;-8.65;50.86;100303.41;4776948;29;20063;-86
2022/03/11 04:13:56;;;;;;;11.38;6.20;;;;;;;-8.62;50.95;100313.78;4775319;29;20062;-81
2022/03/11 04:16:22;;;;;;;12.05;6.63;;;;;;;-8.58;50.40;100293.97;4805868;29;20059;-82
2022/03/11 04:19:29;;;;;;;15.90;6.47;;;;;;;-8.50;49.80;100304.44;4776406;29;20066;-82
2022/03/11 04:21:58;;;;;;;12.65;5.13;;;;;;;-8.60;49.75;100286.19;4793743;29;20050;-81
2022/03/11 04:24:24;;;;;;;17.55;8.48;;;;;;;-8.37;50.18;100294.19;4775003;29;20051;-79
2022/03/11 04:26:53;;;;;;;18.67;6.82;;;;;;;-8.10;49.89;100308.31;4774860;29;20058;-81
2022/03/11 04:29:19;;;;;;;17.30;6.93;;;;;;;-8.09;48.71;100290.16;4777408;29;20111;-81
2022/03/11 04:31:48;;;;;;;19.38;6.63;;;;;;;-7.89;48.47;100294.72;4806205;29;20054;-81
2022/03/11 04:34:18;;;;;;;17.25;6.20;;;;;;;-7.82;47.99;100323.34;4777662;29;20058;-83
2022/03/11 04:36:44;;;;;;;19.45;8.40;;;;;;;-7.79;48.32;100314.69;4776400;29;20053;-82
2022/03/11 04:39:14;;;;;;;19.70;8.65;;;;;;;-7.73;48.21;100319.94;4806625;29;20098;-80
2022/03/11 04:41:43;;;;;;;23.67;8.43;;;;;;;-7.42;48.05;100312.44;4805780;29;20051;-80
2022/03/11 04:44:19;;;;;;;14.90;7.27;;;;;;;-7.62;47.73;100294.97;4807551;29;20058;-77
2022/03/11 04:46:47;;;;;;;12.75;6.35;;;;;;;-7.69;47.58;100295.75;4790805;29;20292;-79
2022/03/11 04:49:17;;;;;;;17.00;7.82;;;;;;;-7.50;48.04;100314.09;4791857;29;20070;-81
2022/03/11 04:51:43;;;;;;;18.35;7.57;;;;;;;-7.47;47.49;100302.00;4813072;29;20054;-79
2022/03/11 04:54:10;;;;;;;18.25;8.25;;;;;;;-7.44;46.98;100303.78;4807604;29;20065;-79
2022/03/11 04:56:37;;;;;;;15.77;6.40;;;;;;;-7.49;46.71;100308.91;4809004;29;20058;-81
2022/03/11 04:59:04;;;;;;;17.17;6.20;;;;;;;-7.59;46.99;100307.97;4807437;29;20468;-80
2022/03/11 05:01:34;;;;;;;15.82;6.88;;;;;;;-7.71;47.34;100313.06;4775824;29;20153;-80
2022/03/11 05:04:00;;;;;;;17.55;5.57;;;;;;;-7.68;47.46;100307.88;4805821;29;20054;-80
2022/03/11 05:06:28;;;;;;;23.55;6.80;;;;;;;-7.69;47.43;100316.53;4791034;29;20050;-81
2022/03/11 05:08:56;;;;;;;11.45;5.18;;;;;;;-7.73;47.62;100314.75;4791798;29;20069;-78
2022/03/11 05:11:23;;;;;;;18.38;5.85;;;;;;;-7.78;47.58;100306.06;4806245;29;20061;-82
2022/03/11 05:13:48;;;;;;;15.90;6.75;;;;;;;-7.74;47.78;100307.84;4791702;29;20062;-80
2022/03/11 05:16:15;;;;;;;22.10;8.80;;;;;;;-7.73;47.83;100314.75;4792014;29;20058;-80
2022/03/11 05:18:41;;;;;;;25.30;7.60;;;;;;;-7.82;47.70;100314.69;4809121;29;20061;-76
2022/03/11 05:21:08;;;;;;;20.83;7.20;;;;;;;-7.89;47.79;100294.72;4805349;29;20069;-80
2022/03/11 05:23:34;;;;;;;24.63;6.97;;;;;;;-7.74;48.10;100305.25;4807916;29;20061;-82
2022/03/11 05:26:00;;;;;;;15.30;6.93;;;;;;;-7.67;47.94;100307.03;4829403;29;20052;-80
2022/03/11 05:28:26;;;;;;;22.73;7.43;;;;;;;-7.73;47.93;100304.38;4831341;29;20097;-82
2022/03/11 05:30:52;;;;;;;16.40;6.30;;;;;;;-7.55;48.19;100302.81;4856916;29;20050;-79
2022/03/11 05:33:19;;;;;;;19.85;6.55;;;;;;;-7.62;47.78;100300.16;4846971;29;20114;-78
2022/03/11 05:35:45;;;;;;;15.48;7.32;;;;;;;-7.52;47.97;100305.41;4812194;29;20057;-80
2022/03/11 05:38:11;;;;;;;16.92;7.13;;;;;;;-7.51;47.89;100291.59;4796740;29;20050;-86
2022/03/11 05:40:37;;;;;;;16.50;7.45;;;;;;;-7.29;47.52;100306.47;4813099;29;20085;-88
2022/03/11 05:43:03;;;;;;;26.48;10.27;;;;;;;-7.32;47.58;100271.81;4817327;29;20053;-88
2022/03/11 05:45:29;;;;;;;35.35;9.20;;;;;;;-7.10;47.53;100295.34;4806365;29;20054;-87
2022/03/11 05:47:55;;;;;;;33.72;7.75;;;;;;;-6.80;46.68;100290.34;4839742;29;20054;-85
2022/03/11 05:50:21;;;;;;;25.48;8.38;;;;;;;-6.70;45.91;100292.97;4842380;29;20061;-86
2022/03/11 05:52:49;;;;;;;36.25;9.13;;;;;;;-6.83;46.13;100291.19;4830773;29;20053;-85
2022/03/11 05:55:17;;;;;;;24.23;8.15;;;;;;;-6.73;46.47;100286.88;4796206;29;20096;-90
2022/03/11 05:57:43;;;;;;;20.15;7.68;;;;;;;-6.37;46.26;100291.38;4796280;29;20582;-85
2022/03/11 06:00:09;;;;;;;24.42;9.55;;;;;;;-6.25;45.70;100269.75;4825849;29;20058;-81
2022/03/11 06:02:41;;;;;;;40.83;7.70;;;;;;;-6.16;45.53;100278.44;4842025;29;20050;-88
2022/03/11 06:05:09;;;;;;;43.22;9.13;;;;;;;-6.23;45.10;100271.50;4826385;29;20085;-85
2022/03/11 06:07:35;;;;;;;27.27;8.68;;;;;;;-6.04;45.03;100279.34;4842972;29;20064;-82
2022/03/11 06:10:01;;;;;;;18.17;7.30;;;;;;;-6.08;44.31;100267.19;4842255;29;20166;-85
2022/03/11 06:12:28;;;;;;;25.52;8.82;;;;;;;-6.06;44.50;100257.63;4842551;29;20278;-86
2022/03/11 06:14:54;;;;;;;14.35;6.85;;;;;;;-5.86;44.02;100268.94;4826065;29;20062;-87
2022/03/11 06:17:20;;;;;;;17.77;7.13;;;;;;;-6.22;44.15;100265.41;4795454;29;20057;-85
2022/03/11 06:19:46;;;;;;;25.85;7.70;;;;;;;-5.96;44.65;100278.50;4825667;29;20461;-83
2022/03/11 06:22:12;;;;;;;23.08;8.43;;;;;;;-5.94;44.66;100270.66;4826157;29;20085;-86
2022/03/11 06:24:38;;;;;;;20.75;7.10;;;;;;;-5.84;43.68;100259.38;4826867;29;20529;-87
2022/03/11 06:27:04;;;;;;;23.08;8.55;;;;;;;-5.78;43.95;100262.00;4828160;29;20400;-86
2022/03/11 06:29:30;;;;;;;34.85;8.50;;;;;;;-5.78;43.72;100267.19;4824142;29;20090;-88
2022/03/11 06:31:56;;;;;;;17.58;8.25;;;;;;;-5.66;43.91;100262.00;4823984;29;20411;-82
2022/03/11 06:34:22;;;;;;;31.55;8.27;;;;;;;-5.57;43.54;100270.66;4838909;29;20054;-81
2022/03/11 06:36:48;;;;;;;20.40;6.95;;;;;;;-5.53;43.45;100268.06;4823619;29;20066;-78
2022/03/11 06:39:14;;;;;;;26.60;7.10;;;;;;;-5.37;43.67;100263.75;4839998;29;20073;-80
2022/03/11 06:41:42;;;;;;;21.70;9.13;;;;;;;-5.38;43.76;100257.66;4835671;29;20511;-79
2022/03/11 06:44:08;;;;;;;26.45;7.28;;;;;;;-5.07;43.12;100259.34;4823092;29;20086;-86
2022/03/11 06:46:34;;;;;;;17.50;7.18;;;;;;;-5.09;43.02;100251.53;4824603;29;20058;-86
2022/03/11 06:49:00;;;;;;;20.67;7.10;;;;;;;-5.06;43.50;100261.94;4823719;29;20081;-80
2022/03/11 06:51:26;;;;;;;20.55;6.55;;;;;;;-5.22;43.29;100257.66;4823351;29;20503;-86
2022/03/11 06:53:52;;;;;;;37.10;7.07;;;;;;;-4.91;43.11;100254.09;4823418;29;20058;-87
2022/03/11 06:56:18;;;;;;;20.73;6.78;;;;;;;-4.95;42.67;100251.50;4794454;29;20161;-81
2022/03/11 06:58:44;;;;;;;19.77;7.70;;;;;;;-4.75;43.59;100244.47;4825980;29;20078;-85
2022/03/11 07:01:10;;;;;;;33.55;9.02;;;;;;;-4.49;42.71;100233.06;4806591;29;20070;-87
2022/03/11 07:03:37;;;;;;;21.75;6.82;;;;;;;-4.35;41.57;100239.09;4823059;29;20054;-84
2022/03/11 07:06:02;;;;;;;20.17;6.65;;;;;;;-4.18;41.75;100231.16;4795855;29;20051;-81
2022/03/11 07:08:28;;;;;;;14.02;6.95;;;;;;;-4.13;41.83;100233.75;4808849;29;20123;-83
2022/03/11 07:10:54;;;;;;;22.00;7.88;;;;;;;-4.00;41.78;100240.63;4824485;29;20058;-80
2022/03/11 07:13:20;;;;;;;23.00;7.03;;;;;;;-4.07;42.28;100244.13;4810637;29;20066;-85
2022/03/11 07:15:46;;;;;;;20.83;7.80;;;;;;;-3.86;41.55;100237.94;4826187;29;20050;-84
2022/03/11 07:18:12;;;;;;;24.83;7.65;;;;;;;-3.67;41.55;100229.94;4825095;29;20058;-86
2022/03/11 07:20:38;;;;;;;23.83;8.98;;;;;;;-2.79;41.92;100232.53;4825457;29;20062;-87
2022/03/11 07:23:05;;;;;;;24.77;8.77;;;;;;;-2.13;40.51;100239.56;4815238;29;20121;-82
2022/03/11 07:25:34;;;;;;;26.35;8.50;;;;;;;-1.90;39.16;100238.38;4807888;29;20423;-82
2022/03/11 07:28:00;;;;;;;22.50;7.35;;;;;;;-2.36;38.49;100226.78;4791502;29;20515;-82
2022/03/11 07:30:27;;;;;;;22.92;7.90;;;;;;;-2.69;39.27;100210.63;4776012;29;20555;-84
2022/03/11 07:32:54;;;;;;;20.27;7.55;;;;;;;-2.83;39.67;100236.06;4776586;29;20051;-82
2022/03/11 07:35:20;;;;;;;19.23;7.07;;;;;;;-2.98;39.79;100223.16;4790943;29;20077;-82
2022/03/11 07:37:46;;;;;;;12.35;5.50;;;;;;;-2.94;40.23;100223.13;4775652;29;20082;-81
2022/03/11 07:40:13;;;;;;;22.40;7.57;;;;;;;-3.16;40.15;100242.53;4822030;29;20607;-81
2022/03/11 07:42:42;;;;;;;23.88;8.70;;;;;;;-2.86;40.17;100243.97;4808698;29;20050;-84
2022/03/11 07:45:13;;;;;;;26.17;9.02;;;;;;;-2.67;40.02;100239.41;4778075;29;20090;-81
2022/03/11 07:47:41;;;;;;;30.90;7.82;;;;;;;-2.86;40.48;100246.56;4808335;29;20062;-82
2022/03/11 07:50:08;;;;;;;29.30;8.65;;;;;;;-2.95;40.15;100228.38;4808707;29;20460;-82
2022/03/11 07:52:35;;;;;;;29.77;6.85;;;;;;;-2.76;40.02;100237.75;4793257;29;20055;-83
2022/03/11 07:55:02;;;;;;;27.55;7.15;;;;;;;-2.95;40.53;100241.44;4809429;29;20058;-82
2022/03/11 07:57:29;;;;;;;24.77;8.85;;;;;;;-2.66;40.91;100242.88;4824712;29;20580;-82
2022/03/11 07:59:55;;;;;;;23.95;8.43;;;;;;;-1.91;40.29;100234.03;4809187;29;20050;-78
2022/03/11 08:02:21;;;;;;;28.42;9.75;;;;;;;-2.20;39.27;100237.91;4808778;29;20154;-81
2022/03/11 08:04:47;;;;;;;34.88;9.65;;;;;;;-2.08;39.89;100244.75;4792839;29;20054;-83
2022/03/11 08:07:13;;;;;;;19.95;7.95;;;;;;;-1.48;39.32;100229.81;4776204;29;20055;-82
2022/03/11 08:09:39;;;;;;;23.10;9.13;;;;;;;-0.84;38.81;100237.44;4806222;29;20069;-83
2022/03/11 08:12:05;;;;;;;30.45;10.88;;;;;;;-0.35;37.74;100226.78;4807570;29;20080;-84
2022/03/11 08:14:31;;;;;;;38.25;9.77;;;;;;;-0.27;37.09;100229.25;4791349;29;20055;-84
2022/03/11 08:16:58;;;;;;;32.70;8.77;;;;;;;-0.79;36.36;100231.22;4790883;29;20067;-84
2022/03/11 08:19:24;;;;;;;24.15;8.40;;;;;;;-1.28;38.02;100228.59;4806113;29;20572;-92
2022/03/11 08:21:53;;;;;;;21.50;8.55;;;;;;;-1.48;38.32;100228.97;4806367;29;20062;-83
2022/03/11 08:24:20;;;;;;;18.83;6.93;;;;;;;-1.92;39.00;100232.28;4806582;29;20104;-84
2022/03/11 08:26:47;;;;;;;39.78;10.80;;;;;;;-1.86;39.63;100240.06;4807414;29;20082;-85
2022/03/11 08:29:13;;;;;;;26.40;8.82;;;;;;;-1.43;39.21;100228.88;4813784;29;20066;-85
2022/03/11 08:31:40;;;;;;;27.70;8.07;;;;;;;-1.81;38.97;100218.13;4825681;29;20061;-82
2022/03/11 08:34:06;;;;;;;21.90;8.70;;;;;;;-1.61;39.37;100209.94;4824894;29;20050;-82
2022/03/11 08:36:32;;;;;;;25.88;7.10;;;;;;;-1.52;39.61;100222.03;4809429;29;20147;-82
2022/03/11 08:38:58;;;;;;;28.38;9.13;;;;;;;-1.10;39.29;100214.28;4809031;29;20141;-84
2022/03/11 08:41:27;;;;;;;19.50;8.70;;;;;;;-1.16;38.37;100198.69;4779036;29;20070;-84
2022/03/11 08:43:54;;;;;;;25.67;8.37;;;;;;;-1.12;39.29;100200.34;4825215;29;20496;-85
2022/03/11 08:46:20;;;;;;;16.80;7.53;;;;;;;-0.82;38.95;100196.28;4809285;29;20058;-84
2022/03/11 08:48:46;;;;;;;15.65;7.60;;;;;;;-1.00;39.71;100190.47;4793686;29;20061;-84
2022/03/11 08:51:11;;;;;;;15.35;6.40;;;;;;;-1.01;39.55;100195.78;4808475;29;20519;-86
2022/03/11 08:53:37;;;;;;;11.52;5.53;;;;;;;-0.14;38.88;100187.81;4794395;29;20511;-87
2022/03/11 08:56:03;;;;;;;12.90;5.78;;;;;;;0.59;37.26;100186.03;4809289;29;20054;-85
2022/03/11 08:58:29;;;;;;;9.75;5.07;;;;;;;0.51;36.61;100185.34;4808981;29;20469;-85
2022/03/11 09:00:56;;;;;;;9.27;5.38;;;;;;;0.78;36.98;100172.38;4808308;29;20062;-83
2022/03/11 09:03:22;;;;;;;8.52;5.30;;;;;;;0.92;35.87;100183.41;4807917;29;20058;-88
2022/03/11 09:05:48;;;;;;;11.52;5.53;;;;;;;1.53;36.74;100181.66;4808375;29;20411;-85
2022/03/11 09:08:14;;;;;;;8.95;4.60;;;;;;;2.42;35.73;100184.16;4808954;29;20054;-82
2022/03/11 09:10:40;;;;;;;7.03;4.97;;;;;;;3.07;34.76;100183.66;4817291;29;20072;-83
2022/03/11 09:13:06;;;;;;;14.77;5.50;;;;;;;3.49;33.28;100182.97;4825830;29;20056;-81
2022/03/11 09:15:33;;;;;;;8.82;5.00;;;;;;;4.06;32.83;100181.66;4815653;29;20133;-82
2022/03/11 09:17:59;;;;;;;11.80;5.22;;;;;;;4.52;32.93;100169.19;4793274;29;20484;-80
2022/03/11 09:20:26;;;;;;;9.30;5.30;;;;;;;4.82;32.30;100171.47;4808621;29;20058;-82
2022/03/11 09:22:53;;;;;;;9.95;5.55;;;;;;;4.91;31.43;100171.06;4793067;29;20461;-81
2022/03/11 09:25:20;;;;;;;9.57;4.30;;;;;;;4.75;31.11;100180.59;4824358;29;20150;-85
2022/03/11 09:27:46;;;;;;;10.70;5.35;;;;;;;4.52;31.73;100179.78;4824450;29;20058;-85
2022/03/11 09:30:13;;;;;;;8.52;5.20;;;;;;;4.40;31.25;100169.72;4789429;29;20066;-81
2022/03/11 09:32:39;;;;;;;6.65;4.72;;;;;;;4.72;31.28;100167.47;4789648;29;20059;-83
2022/03/11 09:35:07;;;;;;;10.27;5.47;;;;;;;4.10;31.99;100156.81;4789498;29;20141;-84
2022/03/11 09:37:34;;;;;;;12.82;4.97;;;;;;;4.19;31.84;100162.66;4804847;29;20054;-86
2022/03/11 09:40:04;;;;;;;28.90;5.53;;;;;;;3.95;32.16;100156.53;4804822;29;20086;-84
2022/03/11 09:42:31;;;;;;;17.20;4.80;;;;;;;4.26;31.60;100153.53;4789907;29;20456;-84
2022/03/11 09:44:58;;;;;;;9.93;4.50;;;;;;;4.45;30.99;100170.38;4789856;29;20065;-85
2022/03/11 09:47:24;;;;;;;7.30;4.40;;;;;;;4.43;31.35;100153.69;4807000;29;20062;-85
2022/03/11 09:49:51;;;;;;;9.00;4.40;;;;;;;4.60;31.58;100167.09;4793500;29;20054;-85
2022/03/11 09:52:23;;;;;;;9.77;4.75;;;;;;;4.86;31.25;100170.41;4791150;29;20089;-85
2022/03/11 09:54:50;;;;;;;6.68;4.57;;;;;;;5.00;31.03;100159.19;4790102;29;20530;-85
2022/03/11 09:57:26;;;;;;;9.80;3.90;;;;;;;5.05;30.10;100173.13;4806865;29;20214;-86
2022/03/11 09:59:55;;;;;;;9.98;4.32;;;;;;;4.82;30.39;100166.19;4792695;29;20055;-83
2022/03/11 10:02:21;;;;;;;;;;;;;;;5.02;30.49;100162.66;4806861;29;20065;-86
2022/03/11 10:04:50;;;;;;;7.63;4.50;;;;;;;4.99;30.31;100155.69;4776112;29;20323;-83
2022/03/11 10:07:28;;;;;;;9.05;5.60;;;;;;;5.20;29.93;100148.56;4791213;29;20046;-85
2022/03/11 10:09:57;;;;;;;6.30;4.18;;;;;;;5.36;30.34;100157.53;4776164;29;20054;-83
2022/03/11 10:12:28;;;;;;;5.55;3.70;;;;;;;4.79;29.86;100139.81;4777991;29;20515;-85
2022/03/11 10:15:00;;;;;;;7.15;5.10;;;;;;;5.09;30.45;100121.69;4812655;29;20127;-85
2022/03/11 10:17:28;;;;;;;6.35;4.22;;;;;;;4.80;30.38;100136.22;4796300;29;20149;-84
2022/03/11 10:20:03;;;;;;;14.75;4.22;;;;;;;4.82;31.20;100140.53;4798561;29;20058;-83
2022/03/11 10:22:31;;;;;;;7.68;3.88;;;;;;;5.04;30.20;100150.16;4828814;29;20412;-84
2022/03/11 10:25:21;;;;;;;10.98;4.47;;;;;;;5.11;30.23;100149.88;4800420;29;20180;-86
2022/03/11 10:28:01;;;;;;;11.27;5.07;;;;;;;4.89;30.30;100130.53;4800009;29;20058;-85
2022/03/11 10:30:33;;;;;;;8.50;4.78;;;;;;;5.01;30.83;100137.09;4829284;29;20070;-86
2022/03/11 10:33:03;;;;;;;5.57;4.10;;;;;;;5.26;30.52;100140.31;4799704;29;20062;-84
2022/03/11 10:35:43;;;;;;;4.88;3.70;;;;;;;5.68;30.07;100141.06;4800341;29;20054;-84
2022/03/11 10:38:12;;;;;;;10.35;4.03;;;;;;;5.90;29.14;100136.47;4798706;29;20093;-85
2022/03/11 10:40:56;;;;;;;5.73;3.90;;;;;;;6.06;29.31;100142.78;4798509;29;20057;-86
2022/03/11 10:43:27;;;;;;;5.72;4.10;;;;;;;6.14;29.30;100138.91;4816454;29;20427;-85
2022/03/11 10:46:09;;;;;;;5.43;3.45;;;;;;;5.67;28.61;100150.81;4802061;29;20062;-85
2022/03/11 10:48:48;;;;;;;5.15;3.88;;;;;;;5.50;29.60;100143.66;4810155;29;20435;-84
2022/03/11 10:51:26;;;;;;;5.80;3.40;;;;;;;5.50;30.29;100133.06;4820217;29;20082;-84
2022/03/11 10:53:52;;;;;;;5.35;3.60;;;;;;;5.71;30.19;100146.22;4792965;29;20575;-85
2022/03/11 10:56:29;;;;;;;12.30;3.65;;;;;;;6.01;29.63;100134.19;4818013;29;20058;-85
2022/03/11 10:58:58;;;;;;;8.15;4.00;;;;;;;5.91;29.96;100138.19;4810451;29;20529;-86
2022/03/11 11:01:54;;;;;;;10.25;3.53;;;;;;;5.17;30.37;100138.09;4825697;29;20055;-81
2022/03/11 11:04:20;;;;;;;8.90;4.03;;;;;;;5.26;30.40;100137.69;4798198;29;20054;-85
2022/03/11 11:06:47;;;;;;;15.60;4.13;;;;;;;5.46;30.50;100142.09;4808273;29;20055;-81
2022/03/11 11:09:17;;;;;;;9.50;3.67;;;;;;;5.48;30.57;100134.91;4807766;29;20045;-85
2022/03/11 11:11:43;;;;;;;5.15;3.45;;;;;;;6.10;30.35;100126.72;4792534;29;20063;-83
2022/03/11 11:14:10;;;;;;;6.28;4.03;;;;;;;6.40;29.75;100125.19;4792993;29;20064;-86
2022/03/11 11:16:44;;;;;;;9.90;4.15;;;;;;;6.42;28.85;100120.66;4807634;29;20062;-84
2022/03/11 11:19:16;;;;;;;7.00;3.55;;;;;;;6.47;28.97;100099.16;4792978;29;20054;-81
2022/03/11 11:21:46;;;;;;;11.10;4.10;;;;;;;6.39;28.44;100112.84;4792960;29;20420;-81